Current Weather

Karlovy Vary

Karlovy Vary, Czechia (LKKV)

Report from: Thursday, July 18, 2024 3:00 PM CEST
Current time: Thursday, July 18, 2024 3:31 PM CEST

Nearby weather – Weather history – Daily summaries
Weather forecast

Temperature24.0°C (75.2°F)
Dew point12.0°C (53.6°F)
Winds 7 kts (3.6 m/s, 8.1 mph) Vrb
Winds variableWinds variable from North-Northeast (20°) to East-Southeast (120°)
Clouds Sky clear
Altimeter30.24 in.Hg (1024 mB)
Relative humidity47 %
Density altitude882 ft. (269 m)
Remarks Ceiling and visibility OK
Flight conditions Visual Meteorological Conditions
Raw dataLKKV 181300Z 08007KT 020V120 CAVOK 24/12 Q1024
An error has occurred. This application may no longer respond until reloaded. Reload 🗙